Time;durP1;ratioP1;P1;durP2;ratioP2;P2;SDS_P1;SDS_P2;PMS_P1;PMS_P2;Temp;Humidity;BMP_temperature;BMP_pressure;BME280_temperature;BME280_humidity;BME280_pressure;Samples;Min_cycle;Max_cycle;Signal;HPM_P1;HPM_P2
2023/08/21 00:00:24;;;;;;;8.23;2.05;;;;;;;23.15;99.22;102177.03;5239630;28;20060;-71
2023/08/21 00:02:55;;;;;;;8.55;2.40;;;;;;;23.11;97.92;102178.28;5236876;28;20147;-70
2023/08/21 00:05:27;;;;;;;7.28;2.58;;;;;;;23.14;98.80;102180.69;5240084;28;20033;-69
2023/08/21 00:07:58;;;;;;;7.63;2.47;;;;;;;22.85;100.00;102189.56;5236715;28;20090;-70
2023/08/21 00:10:30;;;;;;;9.48;2.38;;;;;;;23.10;99.08;102206.00;5240407;28;20037;-70
2023/08/21 00:13:01;;;;;;;8.52;3.03;;;;;;;22.91;100.00;102205.03;5250087;28;20106;-71
2023/08/21 00:15:33;;;;;;;10.80;3.38;;;;;;;22.86;100.00;102190.41;5240656;28;20021;-71
2023/08/21 00:18:05;;;;;;;11.38;2.67;;;;;;;22.62;100.00;102175.66;5248734;28;20112;-71
2023/08/21 00:20:36;;;;;;;6.40;2.55;;;;;;;22.43;100.00;102170.13;5252831;28;20021;-70
2023/08/21 00:23:08;;;;;;;8.65;2.65;;;;;;;22.59;100.00;102174.06;5237445;28;20033;-72
2023/08/21 00:25:39;;;;;;;7.88;2.42;;;;;;;22.45;100.00;102168.16;5238887;28;20028;-71
2023/08/21 00:28:12;;;;;;;9.35;3.53;;;;;;;22.55;100.00;102167.34;5237708;28;20033;-71
2023/08/21 00:30:43;;;;;;;8.68;2.55;;;;;;;22.39;100.00;102174.06;5231770;28;20577;-70
2023/08/21 00:33:14;;;;;;;9.20;2.35;;;;;;;22.50;100.00;102162.41;5243145;28;20029;-71
2023/08/21 00:35:46;;;;;;;9.18;2.22;;;;;;;22.53;100.00;102174.63;5252325;28;20379;-71
2023/08/21 00:38:17;;;;;;;5.65;2.10;;;;;;;22.60;100.00;102175.78;5252043;28;20025;-71
2023/08/21 00:40:48;;;;;;;10.98;2.80;;;;;;;22.28;100.00;102163.50;5214209;28;20071;-69
2023/08/21 00:43:20;;;;;;;8.80;2.72;;;;;;;22.39;100.00;102168.72;5244024;28;20037;-70
2023/08/21 00:45:52;;;;;;;7.15;2.22;;;;;;;22.29;100.00;102167.88;5237821;28;20040;-71
2023/08/21 00:48:24;;;;;;;10.32;3.00;;;;;;;22.22;100.00;102170.22;5251524;28;20461;-70
2023/08/21 00:50:55;;;;;;;6.43;2.42;;;;;;;22.32;100.00;102170.25;5237819;28;20041;-70
2023/08/21 00:53:27;;;;;;;7.57;2.85;;;;;;;22.33;100.00;102175.44;5240222;28;20147;-71
2023/08/21 00:55:58;;;;;;;7.13;2.38;;;;;;;22.28;100.00;102175.03;5248842;28;20052;-70
2023/08/21 00:58:30;;;;;;;7.28;2.55;;;;;;;22.33;100.00;102182.59;5246595;28;20025;-71
2023/08/21 01:01:03;;;;;;;9.27;3.25;;;;;;;22.44;100.00;102181.66;5237963;28;20016;-71
2023/08/21 01:03:35;;;;;;;6.43;2.40;;;;;;;22.41;100.00;102182.75;5234070;28;20036;-70
2023/08/21 01:06:06;;;;;;;7.57;2.38;;;;;;;22.54;100.00;102189.66;5252637;28;20032;-70
2023/08/21 01:09:06;;;;;;;7.38;2.50;;;;;;;22.76;100.00;102193.09;5245660;28;20044;-70
2023/08/21 01:12:10;;;;;;;7.25;2.78;;;;;;;22.48;100.00;102186.56;5241082;28;20029;-70
2023/08/21 01:14:57;;;;;;;10.07;2.80;;;;;;;22.38;100.00;102171.53;5255396;28;20029;-70
2023/08/21 01:17:30;;;;;;;9.60;2.80;;;;;;;22.27;100.00;102160.00;5241925;28;20041;-70
2023/08/21 01:20:02;;;;;;;9.50;2.73;;;;;;;21.92;100.00;102159.50;5254303;28;20031;-71
2023/08/21 01:22:40;;;;;;;10.20;2.73;;;;;;;22.26;100.00;102158.31;5245520;28;20013;-70
2023/08/21 01:25:12;;;;;;;8.37;2.80;;;;;;;22.21;100.00;102147.19;5238106;28;20462;-70
2023/08/21 01:27:50;;;;;;;6.38;2.70;;;;;;;22.12;100.00;102138.19;5255684;28;20176;-69
2023/08/21 01:30:22;;;;;;;10.90;2.43;;;;;;;22.09;100.00;102147.31;5255526;28;20768;-69
2023/08/21 01:33:10;;;;;;;9.00;3.10;;;;;;;22.11;100.00;102149.84;5243284;28;20551;-70
2023/08/21 01:35:42;;;;;;;7.70;3.37;;;;;;;21.88;100.00;102155.41;5247594;28;20076;-70
2023/08/21 01:38:14;;;;;;;12.80;2.90;;;;;;;21.64;100.00;102144.03;5234227;28;20449;-70
2023/08/21 01:40:47;;;;;;;9.47;2.97;;;;;;;21.82;100.00;102151.44;5234734;28;20041;-70
2023/08/21 01:43:20;;;;;;;8.83;3.03;;;;;;;21.62;100.00;102139.84;5234135;28;20048;-68
2023/08/21 01:45:51;;;;;;;9.15;3.28;;;;;;;21.52;100.00;102140.63;5234990;28;20061;-70
2023/08/21 01:48:23;;;;;;;7.70;2.90;;;;;;;21.73;100.00;102146.91;5233489;28;20068;-71
2023/08/21 01:50:54;;;;;;;11.10;3.87;;;;;;;21.66;100.00;102151.09;5234496;28;20671;-70
2023/08/21 01:53:25;;;;;;;11.10;3.40;;;;;;;21.67;100.00;102150.09;5233968;28;20029;-70
2023/08/21 01:55:57;;;;;;;9.50;3.17;;;;;;;21.70;100.00;102165.81;5234099;28;20032;-69
2023/08/21 01:58:28;;;;;;;9.80;2.70;;;;;;;21.59;100.00;102156.09;5234014;28;20056;-70
2023/08/21 02:00:59;;;;;;;8.63;3.33;;;;;;;21.54;100.00;102158.31;5234307;28;20029;-70
2023/08/21 02:03:30;;;;;;;14.23;3.20;;;;;;;21.52;100.00;102167.28;5218700;28;20033;-71
2023/08/21 02:06:02;;;;;;;10.57;3.10;;;;;;;21.46;100.00;102165.16;5233582;28;20562;-70
2023/08/21 02:08:33;;;;;;;10.50;2.90;;;;;;;21.35;100.00;102171.41;5234163;28;20108;-70
2023/08/21 02:11:05;;;;;;;8.00;2.93;;;;;;;21.43;100.00;102173.41;5234617;28;20033;-69
2023/08/21 02:13:36;;;;;;;11.53;3.13;;;;;;;21.55;100.00;102173.34;5233842;28;20403;-70
2023/08/21 02:16:08;;;;;;;10.93;2.90;;;;;;;21.51;100.00;102176.25;5216206;28;20025;-69
2023/08/21 02:18:39;;;;;;;9.30;2.60;;;;;;;21.48;100.00;102165.88;5227237;28;20022;-70
2023/08/21 02:21:10;;;;;;;7.87;3.47;;;;;;;21.41;100.00;102175.38;5223207;28;20456;-70
2023/08/21 02:23:42;;;;;;;7.87;3.07;;;;;;;21.45;100.00;102163.44;5234292;28;20026;-70
2023/08/21 02:26:13;;;;;;;9.30;3.50;;;;;;;21.20;100.00;102170.03;5243223;28;20632;-70
2023/08/21 02:28:45;;;;;;;12.33;3.33;;;;;;;21.35;100.00;102155.41;5252448;28;20127;-70
2023/08/21 02:31:16;;;;;;;7.73;3.10;;;;;;;21.18;100.00;102164.00;5233508;28;20033;-70
2023/08/21 02:33:49;;;;;;;8.73;3.47;;;;;;;21.19;100.00;102168.38;5246714;28;20032;-70
2023/08/21 02:36:21;;;;;;;13.13;3.30;;;;;;;21.11;100.00;102163.69;5233259;28;20034;-70
2023/08/21 02:38:52;;;;;;;7.63;3.73;;;;;;;21.18;100.00;102167.50;5233917;28;20035;-70
2023/08/21 02:41:23;;;;;;;12.67;4.03;;;;;;;21.07;100.00;102162.25;5233401;28;20030;-69
2023/08/21 02:43:54;;;;;;;6.87;3.00;;;;;;;21.28;100.00;102163.09;5233127;28;20117;-70
2023/08/21 02:46:26;;;;;;;10.03;3.17;;;;;;;21.23;100.00;102167.13;5215812;28;20036;-71
2023/08/21 02:48:57;;;;;;;15.30;3.77;;;;;;;21.13;100.00;102167.91;5232779;28;20056;-71
2023/08/21 02:51:28;;;;;;;10.73;3.27;;;;;;;21.16;100.00;102166.78;5231701;28;20041;-71
2023/08/21 02:54:00;;;;;;;11.87;3.40;;;;;;;21.12;100.00;102162.72;5233516;28;20087;-71
2023/08/21 02:56:31;;;;;;;9.87;3.57;;;;;;;20.94;100.00;102167.75;5215015;28;20291;-72
2023/08/21 02:59:02;;;;;;;13.27;3.60;;;;;;;20.94;100.00;102163.28;5233141;28;20036;-71
2023/08/21 03:01:35;;;;;;;7.87;3.17;;;;;;;20.88;100.00;102164.59;5233291;28;20033;-69
2023/08/21 03:04:06;;;;;;;10.37;4.67;;;;;;;21.00;100.00;102161.91;5214349;28;20472;-69
2023/08/21 03:06:37;;;;;;;8.03;3.47;;;;;;;21.04;100.00;102160.69;5219485;28;20050;-70
2023/08/21 03:09:09;;;;;;;10.37;4.13;;;;;;;21.02;100.00;102165.28;5232638;28;20025;-70
2023/08/21 03:11:40;;;;;;;18.33;3.57;;;;;;;20.90;100.00;102162.66;5233502;28;20044;-70
2023/08/21 03:14:11;;;;;;;7.17;3.37;;;;;;;20.80;100.00;102156.41;5233397;28;20455;-70
2023/08/21 03:16:43;;;;;;;9.93;3.53;;;;;;;20.72;100.00;102157.03;5231578;28;20064;-70
2023/08/21 03:19:14;;;;;;;8.30;3.40;;;;;;;20.78;100.00;102171.66;5232931;28;20033;-70
2023/08/21 03:21:45;;;;;;;10.33;3.83;;;;;;;20.71;100.00;102167.81;5232902;28;20606;-70
2023/08/21 03:24:17;;;;;;;10.10;4.23;;;;;;;20.76;100.00;102173.63;5233082;28;20083;-70
2023/08/21 03:26:48;;;;;;;9.53;3.37;;;;;;;20.62;100.00;102161.44;5233065;28;20061;-70
2023/08/21 03:29:19;;;;;;;8.87;2.90;;;;;;;20.72;100.00;102170.34;5233435;28;20056;-70
2023/08/21 03:31:53;;;;;;;8.57;3.40;;;;;;;20.77;100.00;102172.66;5231451;28;20069;-70
2023/08/21 03:34:24;;;;;;;7.57;3.40;;;;;;;20.58;100.00;102162.69;5232829;28;20076;-70
2023/08/21 03:36:55;;;;;;;6.53;3.57;;;;;;;20.77;100.00;102175.31;5232595;28;20068;-70
2023/08/21 03:39:27;;;;;;;8.90;3.33;;;;;;;20.60;100.00;102168.69;5231960;28;20055;-70
2023/08/21 03:41:58;;;;;;;6.60;3.43;;;;;;;20.35;100.00;102162.75;5232782;28;20029;-71
2023/08/21 03:44:29;;;;;;;8.40;3.40;;;;;;;20.64;100.00;102176.31;5231975;28;20022;-70
2023/08/21 03:47:00;;;;;;;11.37;5.20;;;;;;;20.54;100.00;102170.91;5230822;28;20034;-71
2023/08/21 03:49:32;;;;;;;10.97;3.60;;;;;;;20.50;100.00;102166.81;5231714;28;20776;-71
2023/08/21 03:52:03;;;;;;;10.50;3.80;;;;;;;;;;5231833;28;20037;-70
2023/08/21 03:54:34;;;;;;;10.17;3.40;;;;;;;20.61;100.00;102173.06;5231396;28;20033;-70
2023/08/21 03:57:07;;;;;;;13.57;3.73;;;;;;;20.46;100.00;102169.84;5230399;28;20034;-70
2023/08/21 03:59:38;;;;;;;9.63;3.30;;;;;;;20.43;100.00;102176.25;5231241;28;20028;-70
2023/08/21 04:02:09;;;;;;;11.37;3.77;;;;;;;20.35;100.00;102170.72;5237200;28;20029;-70
2023/08/21 04:04:41;;;;;;;11.13;4.17;;;;;;;20.31;100.00;102160.34;5241414;28;20061;-71
2023/08/21 04:07:12;;;;;;;6.80;2.97;;;;;;;20.33;100.00;102159.34;5233776;28;20050;-69
2023/08/21 04:09:44;;;;;;;9.60;3.77;;;;;;;20.21;100.00;102163.84;5220300;28;20112;-69
2023/08/21 04:12:15;;;;;;;10.63;3.67;;;;;;;20.27;100.00;102158.03;5218856;28;20383;-69
2023/08/21 04:14:46;;;;;;;11.77;4.03;;;;;;;20.21;100.00;102164.72;5236848;28;20025;-70
2023/08/21 04:17:24;;;;;;;9.23;4.37;;;;;;;20.29;100.00;102164.06;5221299;28;20123;-70
2023/08/21 04:19:55;;;;;;;7.63;4.90;;;;;;;20.09;100.00;102168.34;5231516;28;20030;-70
2023/08/21 04:22:26;;;;;;;9.30;4.53;;;;;;;19.88;100.00;102163.75;5231561;28;20030;-70
2023/08/21 04:24:58;;;;;;;8.13;3.60;;;;;;;20.26;100.00;102177.63;5236658;28;20534;-69
2023/08/21 04:27:29;;;;;;;9.73;4.37;;;;;;;20.16;100.00;102170.38;5235956;28;20094;-70
2023/08/21 04:30:00;;;;;;;8.40;4.10;;;;;;;20.16;100.00;102186.34;5234545;28;20133;-70
2023/08/21 04:32:32;;;;;;;14.00;3.67;;;;;;;20.12;100.00;102190.22;5216528;28;20021;-70
2023/08/21 04:35:05;;;;;;;9.10;4.00;;;;;;;20.21;100.00;102193.13;5235170;28;20029;-71
2023/08/21 04:37:38;;;;;;;12.50;4.77;;;;;;;20.31;100.00;102186.94;5236978;28;20040;-70
2023/08/21 04:40:10;;;;;;;6.50;3.50;;;;;;;20.30;100.00;102193.22;5231988;28;20024;-70
2023/08/21 04:42:42;;;;;;;8.60;3.70;;;;;;;20.09;100.00;102182.47;5234295;28;20068;-71
2023/08/21 04:45:13;;;;;;;11.13;4.20;;;;;;;20.32;100.00;102195.75;5246309;28;20049;-71
2023/08/21 04:47:44;;;;;;;8.93;3.90;;;;;;;20.40;100.00;102198.63;5246279;28;20040;-71
2023/08/21 04:50:15;;;;;;;11.33;4.13;;;;;;;20.48;100.00;102206.00;5231373;28;20021;-69
2023/08/21 04:52:48;;;;;;;8.17;3.50;;;;;;;20.47;100.00;102206.97;5231633;28;20021;-70
2023/08/21 04:55:20;;;;;;;11.93;4.47;;;;;;;20.43;100.00;102203.72;5232021;28;20021;-70
2023/08/21 04:57:51;;;;;;;7.27;3.50;;;;;;;20.45;100.00;102200.94;5231192;28;20037;-70
2023/08/21 05:00:23;;;;;;;9.70;4.27;;;;;;;20.31;100.00;102200.25;5231922;28;20025;-70
2023/08/21 05:02:54;;;;;;;11.17;3.87;;;;;;;20.18;100.00;102196.84;5229082;28;20027;-71
2023/08/21 05:05:25;;;;;;;8.13;3.87;;;;;;;20.29;100.00;102202.19;5231341;28;20144;-71
2023/08/21 05:07:57;;;;;;;7.67;3.47;;;;;;;20.10;100.00;102202.81;5231270;28;20029;-71
2023/08/21 05:10:28;;;;;;;10.77;4.00;;;;;;;20.19;100.00;102198.56;5231623;28;20025;-70
2023/08/21 05:12:59;;;;;;;9.63;3.93;;;;;;;20.23;100.00;102204.47;5231360;28;20033;-69
2023/08/21 05:15:31;;;;;;;9.70;4.20;;;;;;;20.02;100.00;102203.34;5230228;28;20057;-71
2023/08/21 05:18:02;;;;;;;10.20;3.90;;;;;;;19.99;100.00;102205.41;5230398;28;20072;-70
2023/08/21 05:20:33;;;;;;;9.87;3.60;;;;;;;19.97;100.00;102208.19;5231156;28;20486;-70
2023/08/21 05:23:05;;;;;;;8.83;3.33;;;;;;;20.10;100.00;102212.59;5230952;28;20033;-70
2023/08/21 05:25:36;;;;;;;7.57;4.27;;;;;;;20.21;100.00;102214.41;5230955;28;20115;-69
2023/08/21 05:28:07;;;;;;;9.13;4.13;;;;;;;20.24;100.00;102215.00;5234108;28;20609;-71
2023/08/21 05:30:39;;;;;;;9.83;4.37;;;;;;;20.25;100.00;102216.69;5224472;28;20029;-71
2023/08/21 05:33:10;;;;;;;11.87;4.57;;;;;;;20.19;100.00;102222.50;5229297;28;20464;-70
2023/08/21 05:35:41;;;;;;;14.77;4.37;;;;;;;20.33;100.00;102213.41;5238341;28;20031;-70
2023/08/21 05:38:13;;;;;;;14.23;4.90;;;;;;;20.28;100.00;102226.25;5216966;28;20507;-70
2023/08/21 05:40:44;;;;;;;12.40;4.40;;;;;;;20.22;100.00;102216.94;5235671;28;20100;-70
2023/08/21 05:43:18;;;;;;;9.40;4.50;;;;;;;20.31;100.00;102223.31;5238355;28;20036;-71
2023/08/21 05:45:49;;;;;;;9.33;4.20;;;;;;;20.42;100.00;102217.97;5237433;28;20026;-70
2023/08/21 05:48:21;;;;;;;7.07;4.00;;;;;;;20.36;100.00;102220.28;5233857;28;20391;-70
2023/08/21 05:50:53;;;;;;;15.33;5.60;;;;;;;20.46;100.00;102225.72;5216414;28;20033;-70
2023/08/21 05:53:24;;;;;;;13.20;4.90;;;;;;;20.23;100.00;102226.59;5216722;28;20383;-70
2023/08/21 05:55:55;;;;;;;10.13;4.27;;;;;;;20.29;100.00;102223.47;5235272;28;20104;-71
2023/08/21 05:58:30;;;;;;;11.47;4.87;;;;;;;20.24;100.00;102222.13;5262068;28;20097;-73
2023/08/21 06:01:01;;;;;;;10.50;4.80;;;;;;;20.49;100.00;102221.00;5235777;28;20029;-75
2023/08/21 06:03:32;;;;;;;12.43;4.57;;;;;;;20.49;100.00;102223.66;5261807;28;20036;-75
2023/08/21 06:06:04;;;;;;;7.40;4.33;;;;;;;20.49;100.00;102228.97;5247989;28;20451;-74
2023/08/21 06:08:35;;;;;;;12.73;5.73;;;;;;;20.49;100.00;102226.31;5241339;28;20051;-74
2023/08/21 06:11:06;;;;;;;13.63;5.77;;;;;;;20.30;100.00;102221.63;5240615;28;20037;-74
2023/08/21 06:13:38;;;;;;;11.43;5.10;;;;;;;20.54;100.00;102234.75;5230227;28;20040;-75
2023/08/21 06:16:09;;;;;;;9.80;4.60;;;;;;;20.44;100.00;102231.16;5226644;28;20036;-75
2023/08/21 06:18:40;;;;;;;12.07;5.47;;;;;;;20.58;100.00;102238.03;5233948;28;20225;-75
2023/08/21 06:21:12;;;;;;;10.30;5.27;;;;;;;20.63;100.00;102243.00;5214550;28;20113;-75
2023/08/21 06:23:43;;;;;;;11.70;5.33;;;;;;;20.50;100.00;102243.97;5225006;28;20360;-75
2023/08/21 06:26:14;;;;;;;11.13;5.27;;;;;;;20.88;100.00;102249.81;5252436;28;20104;-75
2023/08/21 06:28:46;;;;;;;9.03;4.40;;;;;;;20.94;100.00;102251.16;5237116;28;20071;-74
2023/08/21 06:31:17;;;;;;;15.60;5.93;;;;;;;21.06;100.00;102248.44;5233317;28;20033;-75
2023/08/21 06:33:48;;;;;;;15.03;5.40;;;;;;;20.90;100.00;102252.34;5232084;28;20175;-76
2023/08/21 06:36:19;;;;;;;12.33;5.00;;;;;;;20.92;100.00;102250.41;5226870;28;20025;-76
2023/08/21 06:38:51;;;;;;;13.43;5.47;;;;;;;20.93;100.00;102252.09;5232809;28;20549;-73
2023/08/21 06:41:22;;;;;;;10.03;5.23;;;;;;;20.94;100.00;102253.81;5237367;28;20021;-74
2023/08/21 06:43:53;;;;;;;9.87;5.23;;;;;;;21.12;100.00;102254.09;5250011;28;20149;-74
2023/08/21 06:46:25;;;;;;;13.93;5.17;;;;;;;21.06;100.00;102254.63;5231779;28;20055;-73
2023/08/21 06:48:57;;;;;;;11.03;5.07;;;;;;;21.08;100.00;102242.03;5233676;28;20040;-74
2023/08/21 06:51:28;;;;;;;11.47;5.27;;;;;;;21.16;100.00;102249.38;5231874;28;20116;-73
2023/08/21 06:53:59;;;;;;;10.43;5.53;;;;;;;21.21;100.00;102249.81;5246813;28;20112;-73
2023/08/21 06:56:32;;;;;;;11.43;5.00;;;;;;;21.41;100.00;102249.97;5233375;28;20075;-73
2023/08/21 06:59:03;;;;;;;11.32;5.20;;;;;;;21.41;100.00;102252.66;5231296;28;20026;-73
2023/08/21 07:01:35;;;;;;;14.73;4.93;;;;;;;21.37;100.00;102243.22;5214619;28;20026;-73
2023/08/21 07:04:06;;;;;;;10.47;5.73;;;;;;;21.59;100.00;102252.06;5215095;28;20450;-73
2023/08/21 07:06:37;;;;;;;14.07;5.32;;;;;;;21.67;100.00;102254.06;5233279;28;20053;-73
2023/08/21 07:09:09;;;;;;;9.73;5.22;;;;;;;21.70;100.00;102248.47;5233327;28;20187;-73
2023/08/21 07:11:42;;;;;;;8.87;5.37;;;;;;;21.76;100.00;102243.44;5232356;28;20144;-73
2023/08/21 07:14:13;;;;;;;13.30;5.45;;;;;;;21.84;100.00;102252.63;5238915;28;20071;-74
2023/08/21 07:16:45;;;;;;;10.85;5.15;;;;;;;21.90;100.00;102259.28;5231911;28;20041;-74
2023/08/21 07:19:17;;;;;;;12.55;4.75;;;;;;;21.86;100.00;102259.53;5249493;28;20090;-73
2023/08/21 07:21:48;;;;;;;10.98;5.40;;;;;;;21.98;100.00;102249.63;5198346;28;20105;-72
2023/08/21 07:24:19;;;;;;;12.70;6.00;;;;;;;22.04;100.00;102253.59;5225196;28;20226;-73
2023/08/21 07:26:51;;;;;;;12.25;5.68;;;;;;;22.27;100.00;102255.22;5232599;28;20068;-73
2023/08/21 07:29:22;;;;;;;12.55;5.75;;;;;;;22.40;100.00;102255.81;5231488;28;20037;-74
2023/08/21 07:31:53;;;;;;;13.50;5.63;;;;;;;22.50;100.00;102255.00;5216054;28;21756;-73
2023/08/21 07:34:24;;;;;;;10.55;5.03;;;;;;;22.72;100.00;102249.47;5236104;28;20068;-73
2023/08/21 07:36:56;;;;;;;8.30;4.68;;;;;;;22.92;100.00;102262.81;5242049;28;20053;-73
2023/08/21 07:39:27;;;;;;;10.52;5.05;;;;;;;22.88;100.00;102253.41;5241144;28;20108;-73
2023/08/21 07:41:58;;;;;;;11.30;5.32;;;;;;;22.94;100.00;102258.16;5239026;28;20029;-73
2023/08/21 07:44:30;;;;;;;12.27;5.90;;;;;;;23.00;100.00;102261.28;5235314;28;20060;-74
2023/08/21 07:47:01;;;;;;;14.23;4.70;;;;;;;22.91;100.00;102252.25;5231000;28;20121;-74
2023/08/21 07:49:33;;;;;;;7.70;3.55;;;;;;;23.06;100.00;102258.03;5232365;28;20434;-74
2023/08/21 07:52:04;;;;;;;12.52;4.45;;;;;;;23.03;100.00;102258.31;5220445;28;20099;-73
2023/08/21 07:54:36;;;;;;;10.75;5.20;;;;;;;23.20;100.00;102257.59;5230004;28;20026;-72
2023/08/21 07:57:07;;;;;;;8.95;5.03;;;;;;;23.27;100.00;102254.34;5231642;28;20037;-72
2023/08/21 07:59:38;;;;;;;12.38;5.78;;;;;;;23.12;100.00;102260.16;5231020;28;20045;-72
2023/08/21 08:02:12;;;;;;;12.05;4.60;;;;;;;23.15;100.00;102265.19;5231029;28;20172;-73
2023/08/21 08:04:43;;;;;;;10.93;5.07;;;;;;;23.13;100.00;102269.84;5200639;28;20059;-71
2023/08/21 08:07:15;;;;;;;10.30;4.47;;;;;;;23.15;100.00;102262.53;5227460;28;20042;-72
2023/08/21 08:09:46;;;;;;;9.10;4.45;;;;;;;23.28;100.00;102262.25;5227429;28;20394;-72
2023/08/21 08:12:18;;;;;;;13.60;4.85;;;;;;;23.48;100.00;102269.41;5238441;28;20036;-71
2023/08/21 08:14:49;;;;;;;8.98;3.75;;;;;;;23.62;100.00;102268.97;5233913;28;20131;-72
2023/08/21 08:17:20;;;;;;;14.70;3.53;;;;;;;23.48;100.00;102269.41;5247818;28;20052;-72
2023/08/21 08:19:52;;;;;;;9.15;3.95;;;;;;;23.51;100.00;102258.44;5235567;28;20101;-72
2023/08/21 08:22:23;;;;;;;7.95;3.40;;;;;;;23.62;100.00;102271.63;5223913;28;20095;-70
2023/08/21 08:24:54;;;;;;;9.90;2.90;;;;;;;23.72;100.00;102273.47;5221799;28;20476;-70
2023/08/21 08:27:25;;;;;;;8.48;2.50;;;;;;;24.01;100.00;102265.34;5220441;28;20039;-72
2023/08/21 08:29:57;;;;;;;9.80;3.45;;;;;;;23.91;100.00;102261.84;5231275;28;20040;-72
2023/08/21 08:32:28;;;;;;;8.98;2.78;;;;;;;23.98;100.00;102270.13;5224579;28;20500;-72
2023/08/21 08:35:00;;;;;;;6.82;2.85;;;;;;;24.21;100.00;102264.44;5244939;28;20033;-70
2023/08/21 08:37:31;;;;;;;9.07;5.13;;;;;;;23.98;99.30;102264.78;5239693;28;20064;-72
2023/08/21 08:40:03;;;;;;;8.25;3.03;;;;;;;24.11;92.66;102270.63;5229445;28;20029;-72
2023/08/21 08:42:36;;;;;;;9.23;2.80;;;;;;;24.20;96.11;102268.94;5234224;28;20431;-71
2023/08/21 08:45:07;;;;;;;13.40;4.50;;;;;;;24.49;94.85;102275.97;5234307;28;20052;-72
2023/08/21 08:47:40;;;;;;;9.82;3.17;;;;;;;24.64;94.72;102270.09;5226441;28;20120;-72
2023/08/21 08:50:13;;;;;;;10.80;2.80;;;;;;;24.80;84.86;102271.25;5220580;28;20026;-73
2023/08/21 08:52:44;;;;;;;7.78;2.35;;;;;;;24.75;86.01;102280.59;5219477;28;20027;-71
2023/08/21 08:55:16;;;;;;;11.25;3.00;;;;;;;24.83;85.45;102279.84;5231752;28;20025;-73
2023/08/21 08:57:47;;;;;;;8.30;3.28;;;;;;;24.77;83.12;102267.88;5238220;28;20068;-73
2023/08/21 09:00:20;;;;;;;8.85;2.75;;;;;;;24.68;79.98;102273.31;5232779;28;20048;-74
2023/08/21 09:02:51;;;;;;;8.75;2.65;;;;;;;24.72;80.51;102277.38;5215035;28;20076;-73
2023/08/21 09:05:23;;;;;;;7.10;2.95;;;;;;;24.51;81.81;102278.50;5236471;28;20384;-72
2023/08/21 09:08:10;;;;;;;8.27;2.95;;;;;;;24.83;87.54;102263.78;5232746;28;20063;-72
2023/08/21 09:10:43;;;;;;;11.45;3.58;;;;;;;24.70;87.59;102276.69;5236192;28;20120;-71
2023/08/21 09:13:17;;;;;;;9.32;2.40;;;;;;;24.83;85.93;102269.13;5229390;28;20053;-73
2023/08/21 09:15:51;;;;;;;;;;;;;;;25.25;84.89;102269.50;5234448;28;20040;-74
2023/08/21 09:18:23;;;;;;;8.00;1.90;;;;;;;24.89;78.90;102256.94;5231217;28;19951;-72
2023/08/21 09:20:55;;;;;;;4.50;1.77;;;;;;;24.78;82.53;102263.38;5227596;28;20025;-72
2023/08/21 09:23:28;;;;;;;6.22;2.90;;;;;;;24.86;82.22;102263.44;5238958;28;20060;-73
2023/08/21 09:26:02;;;;;;;9.60;3.10;;;;;;;24.97;84.35;102275.81;5217000;28;20051;-72
2023/08/21 09:28:34;;;;;;;9.07;2.92;;;;;;;24.97;81.63;102264.25;5236215;28;20279;-74
2023/08/21 09:31:05;;;;;;;10.15;2.72;;;;;;;25.02;79.38;102270.00;5238900;28;20026;-74
2023/08/21 09:33:37;;;;;;;10.43;4.15;;;;;;;25.15;79.33;102261.56;5225259;28;20036;-74
2023/08/21 09:36:09;;;;;;;7.72;3.42;;;;;;;25.27;74.25;102264.84;5216531;28;20071;-73
2023/08/21 09:38:45;;;;;;;7.47;2.78;;;;;;;25.38;73.88;102255.69;5244820;28;20036;-73
2023/08/21 09:41:20;;;;;;;9.00;2.63;;;;;;;25.53;75.66;102264.03;5245026;28;20022;-73
2023/08/21 09:43:51;;;;;;;8.38;2.30;;;;;;;25.77;77.26;102265.19;5244920;28;20112;-73
2023/08/21 09:46:25;;;;;;;7.22;2.10;;;;;;;25.50;69.04;102258.97;5218500;28;20147;-73
2023/08/21 09:48:56;;;;;;;6.90;2.03;;;;;;;25.61;72.72;102269.44;5233544;28;20025;-72
2023/08/21 09:51:27;;;;;;;5.13;1.92;;;;;;;25.81;72.15;102260.34;5234524;28;20473;-73
2023/08/21 09:53:59;;;;;;;8.32;2.17;;;;;;;26.03;67.83;102267.00;5245698;28;20057;-73
2023/08/21 09:56:32;;;;;;;6.15;2.08;;;;;;;25.99;66.09;102254.88;5230912;28;20060;-72
2023/08/21 09:59:04;;;;;;;11.57;2.80;;;;;;;26.00;65.59;102255.72;5236445;28;20032;-72
2023/08/21 10:01:36;;;;;;;7.63;2.45;;;;;;;26.23;68.71;102250.63;5221467;28;20021;-71
2023/08/21 10:04:08;;;;;;;7.03;2.13;;;;;;;26.19;70.08;102249.28;5229119;28;20491;-72
2023/08/21 10:06:40;;;;;;;7.95;1.75;;;;;;;26.39;64.70;102246.34;5210692;28;20045;-72
2023/08/21 10:09:13;;;;;;;5.15;1.95;;;;;;;26.35;60.87;102245.84;5216699;28;20030;-72
2023/08/21 10:11:45;;;;;;;4.60;1.40;;;;;;;26.58;60.88;102246.03;5226630;28;20459;-72
2023/08/21 10:14:17;;;;;;;5.65;1.65;;;;;;;26.62;59.20;102245.72;5223127;28;20100;-72
2023/08/21 10:16:51;;;;;;;6.38;2.17;;;;;;;26.75;63.83;102246.06;5231432;28;20025;-72
2023/08/21 10:19:22;;;;;;;9.13;1.90;;;;;;;26.79;59.04;102238.53;5217205;28;20365;-71
2023/08/21 10:21:55;;;;;;;9.18;2.20;;;;;;;26.93;58.64;102237.03;5223745;28;20030;-72
2023/08/21 10:24:28;;;;;;;9.35;2.17;;;;;;;26.87;57.25;102237.66;5221042;28;20037;-72
2023/08/21 10:27:00;;;;;;;7.80;1.73;;;;;;;26.95;57.39;102237.66;5222229;28;20025;-72
2023/08/21 10:29:31;;;;;;;10.57;2.00;;;;;;;27.00;55.37;102235.31;5227145;28;20036;-73
2023/08/21 10:32:04;;;;;;;6.60;1.50;;;;;;;27.12;56.67;102229.63;5236892;28;20823;-73
2023/08/21 10:34:37;;;;;;;7.68;1.55;;;;;;;27.27;54.57;102241.38;5236164;28;20028;-72
2023/08/21 10:37:12;;;;;;;5.83;1.13;;;;;;;27.45;49.18;102240.34;5232998;28;20025;-72
2023/08/21 10:39:55;;;;;;;5.25;1.45;;;;;;;27.88;51.48;102236.53;5236245;28;20762;-72
2023/08/21 10:42:40;;;;;;;6.65;1.80;;;;;;;28.22;53.70;102230.00;5223205;28;20085;-72
2023/08/21 10:45:12;;;;;;;7.22;1.58;;;;;;;28.30;49.09;102234.50;5227003;28;20075;-72
2023/08/21 10:47:46;;;;;;;9.38;2.05;;;;;;;28.79;45.85;102234.34;5232476;28;20029;-73
2023/08/21 10:50:18;;;;;;;6.72;1.50;;;;;;;28.81;44.94;102243.09;5233359;28;20037;-73
2023/08/21 10:52:51;;;;;;;5.97;2.00;;;;;;;29.42;47.24;102246.78;5233001;28;20647;-72
2023/08/21 10:55:23;;;;;;;6.68;1.98;;;;;;;29.55;44.54;102244.28;5233086;28;20056;-72
2023/08/21 10:57:54;;;;;;;6.68;1.70;;;;;;;29.91;44.08;102256.22;5233044;28;20032;-73
2023/08/21 11:00:26;;;;;;;5.60;1.40;;;;;;;30.13;44.28;102250.00;5232494;28;20032;-73
2023/08/21 11:02:57;;;;;;;6.22;1.70;;;;;;;30.02;40.63;102248.66;5232658;28;20029;-73
2023/08/21 11:05:28;;;;;;;5.03;1.35;;;;;;;29.59;41.78;102248.28;5232377;28;20022;-73
2023/08/21 11:08:00;;;;;;;7.57;1.70;;;;;;;29.32;42.27;102244.38;5232727;28;20033;-73
2023/08/21 11:10:31;;;;;;;8.35;1.52;;;;;;;29.08;47.05;102244.41;5229672;28;20040;-74
2023/08/21 11:13:06;;;;;;;6.85;2.05;;;;;;;29.46;44.71;102240.81;5219411;28;20026;-73
2023/08/21 11:15:37;;;;;;;5.88;1.63;;;;;;;29.39;44.25;102247.16;5241467;28;20423;-74
2023/08/21 11:18:09;;;;;;;7.45;1.85;;;;;;;29.19;44.59;102240.44;5222601;28;20037;-75
2023/08/21 11:20:41;;;;;;;5.47;1.92;;;;;;;28.67;44.40;102237.47;5213393;28;20053;-74
2023/08/21 11:23:12;;;;;;;5.47;2.05;;;;;;;28.70;45.96;102234.41;5224867;28;20021;-73
2023/08/21 11:25:43;;;;;;;8.63;1.90;;;;;;;28.84;45.80;102232.78;5229393;28;20021;-73
2023/08/21 11:28:16;;;;;;;4.32;1.50;;;;;;;28.79;44.90;102239.75;5241530;28;20587;-74
2023/08/21 11:30:48;;;;;;;7.13;1.95;;;;;;;28.94;45.87;102237.13;5233470;28;20046;-74
2023/08/21 11:33:19;;;;;;;4.78;1.48;;;;;;;28.93;45.51;102230.03;5196934;28;20554;-74
2023/08/21 11:35:53;;;;;;;8.35;1.98;;;;;;;28.96;44.15;102225.09;5222394;28;20055;-74
2023/08/21 11:38:26;;;;;;;9.63;2.30;;;;;;;28.88;46.63;102230.56;5250872;28;20025;-73